createdAt,value
2022-12-18T00:01:51.428Z,7.90
2022-12-18T00:04:22.627Z,7.78
2022-12-18T00:06:49.680Z,7.68
2022-12-18T00:09:17.190Z,6.82
2022-12-18T00:11:43.929Z,8.13
2022-12-18T00:14:13.695Z,7.70
2022-12-18T00:16:43.807Z,7.95
2022-12-18T00:19:11.520Z,7.82
2022-12-18T00:21:42.821Z,7.43
2022-12-18T00:24:09.980Z,7.40
2022-12-18T00:26:38.235Z,8.57
2022-12-18T00:29:08.155Z,7.95
2022-12-18T00:31:36.646Z,7.88
2022-12-18T00:34:04.197Z,6.82
2022-12-18T00:36:32.379Z,7.53
2022-12-18T00:39:00.404Z,7.30
2022-12-18T00:41:46.593Z,7.28
2022-12-18T00:44:15.379Z,7.28
2022-12-18T00:46:44.493Z,7.57
2022-12-18T00:49:11.837Z,7.75
2022-12-18T00:51:38.550Z,6.88
2022-12-18T00:54:05.878Z,6.70
2022-12-18T00:56:32.606Z,6.35
2022-12-18T00:58:59.384Z,7.80
2022-12-18T01:01:26.117Z,7.38
2022-12-18T01:03:54.290Z,7.60
2022-12-18T01:06:20.995Z,7.57
2022-12-18T01:08:47.766Z,8.82
2022-12-18T01:11:16.477Z,8.68
2022-12-18T01:13:44.357Z,7.85
2022-12-18T01:16:12.808Z,7.40
2022-12-18T01:18:39.674Z,7.63
2022-12-18T01:21:09.993Z,7.35
2022-12-18T01:23:37.201Z,6.80
2022-12-18T01:26:08.116Z,8.00
2022-12-18T01:28:34.980Z,6.15
2022-12-18T01:31:14.482Z,7.35
2022-12-18T01:33:41.648Z,6.65
2022-12-18T01:36:16.252Z,6.95
2022-12-18T01:38:43.104Z,6.07
2022-12-18T01:41:10.094Z,6.68
2022-12-18T01:43:48.600Z,7.38
2022-12-18T01:46:15.772Z,7.30
2022-12-18T01:48:43.514Z,6.80
2022-12-18T01:51:12.814Z,7.72
2022-12-18T01:53:43.196Z,6.07
2022-12-18T01:56:15.252Z,7.55
2022-12-18T01:58:49.628Z,7.00
2022-12-18T02:01:16.566Z,6.95
2022-12-18T02:03:45.138Z,6.72
2022-12-18T02:06:18.528Z,6.97
2022-12-18T02:08:54.558Z,7.32
2022-12-18T02:11:31.300Z,6.53
2022-12-18T02:14:08.916Z,6.90
2022-12-18T02:16:40.591Z,6.97
2022-12-18T02:19:21.868Z,7.13
2022-12-18T02:22:02.364Z,6.68
2022-12-18T02:24:36.199Z,6.68
2022-12-18T02:27:07.065Z,6.68
2022-12-18T02:29:39.950Z,6.68
2022-12-18T02:32:11.397Z,6.80
2022-12-18T02:34:40.817Z,7.40
2022-12-18T02:37:13.121Z,6.15
2022-12-18T02:39:43.208Z,6.97
2022-12-18T02:42:13.843Z,6.38
2022-12-18T02:44:46.359Z,6.65
2022-12-18T02:49:53.060Z,6.13
2022-12-18T02:52:33.113Z,6.47
2022-12-18T02:55:14.017Z,6.63
2022-12-18T02:57:50.624Z,6.15
2022-12-18T03:00:22.523Z,5.53
2022-12-18T03:02:55.627Z,5.82
2022-12-18T03:05:26.093Z,6.63
2022-12-18T03:07:58.065Z,6.22
2022-12-18T03:10:29.339Z,5.80
2022-12-18T03:13:02.999Z,6.53
2022-12-18T03:15:33.013Z,6.57
2022-12-18T03:18:03.825Z,6.15
2022-12-18T03:20:32.613Z,6.20
2022-12-18T03:23:05.150Z,6.30
2022-12-18T03:28:04.386Z,5.38
2022-12-18T03:30:34.960Z,5.45
2022-12-18T03:33:07.554Z,6.07
2022-12-18T03:38:03.156Z,4.75
2022-12-18T03:40:38.012Z,6.45
2022-12-18T03:43:12.607Z,5.45
2022-12-18T03:45:44.020Z,6.32
2022-12-18T03:48:18.434Z,5.32
2022-12-18T03:50:52.584Z,5.40
2022-12-18T03:53:26.830Z,5.18
2022-12-18T03:55:54.190Z,4.90
2022-12-18T03:58:26.399Z,4.85
2022-12-18T04:00:57.010Z,5.65
2022-12-18T04:03:37.851Z,5.80
2022-12-18T04:06:06.339Z,5.47
2022-12-18T04:08:35.898Z,6.57
2022-12-18T04:11:03.219Z,5.10
2022-12-18T04:13:36.071Z,5.53
2022-12-18T04:16:03.126Z,5.20
2022-12-18T04:18:30.160Z,5.05
2022-12-18T04:20:56.876Z,5.22
2022-12-18T04:23:23.733Z,4.57
2022-12-18T04:25:50.572Z,5.07
2022-12-18T04:28:17.269Z,5.78
2022-12-18T04:30:45.399Z,5.20
2022-12-18T04:33:14.066Z,5.30
2022-12-18T04:35:42.597Z,4.72
2022-12-18T04:38:10.907Z,4.93
2022-12-18T04:40:38.833Z,4.97
2022-12-18T04:43:06.359Z,4.93
2022-12-18T04:45:33.428Z,5.72
2022-12-18T04:48:02.481Z,5.53
2022-12-18T04:50:30.148Z,3.83
2022-12-18T04:52:57.593Z,4.55
2022-12-18T04:55:27.531Z,5.00
2022-12-18T04:57:54.553Z,6.55
2022-12-18T05:00:21.398Z,5.32
2022-12-18T05:02:48.303Z,4.68
2022-12-18T05:05:17.047Z,3.83
2022-12-18T05:07:43.790Z,4.35
2022-12-18T05:10:11.019Z,4.47
2022-12-18T05:12:59.123Z,4.60
2022-12-18T05:15:29.875Z,4.43
2022-12-18T05:17:57.185Z,4.47
2022-12-18T05:20:25.941Z,5.22
2022-12-18T05:22:53.150Z,4.32
2022-12-18T05:25:20.621Z,4.05
2022-12-18T05:27:47.955Z,4.43
2022-12-18T05:30:16.309Z,4.78
2022-12-18T05:32:43.373Z,4.90
2022-12-18T05:35:11.577Z,4.63
2022-12-18T05:37:46.970Z,4.22
2022-12-18T05:40:14.248Z,4.53
2022-12-18T05:42:41.115Z,4.53
2022-12-18T05:45:08.851Z,4.57
2022-12-18T05:47:35.668Z,4.93
2022-12-18T05:50:02.617Z,4.10
2022-12-18T05:52:29.313Z,4.13
2022-12-18T05:55:00.105Z,4.38
2022-12-18T05:57:27.268Z,4.15
2022-12-18T05:59:53.975Z,4.82
2022-12-18T06:02:22.087Z,4.85
2022-12-18T06:04:49.050Z,5.05
2022-12-18T06:07:15.893Z,4.78
2022-12-18T06:09:42.592Z,5.13
2022-12-18T06:12:11.819Z,4.57
2022-12-18T06:14:38.705Z,4.38
2022-12-18T06:17:05.453Z,4.72
2022-12-18T06:19:32.232Z,5.45
2022-12-18T06:22:00.764Z,5.00
2022-12-18T06:24:29.624Z,4.90
2022-12-18T06:26:57.315Z,4.72
2022-12-18T06:29:31.857Z,3.92
2022-12-18T06:31:58.559Z,4.25
2022-12-18T06:34:25.453Z,3.97
2022-12-18T06:37:06.142Z,4.22
2022-12-18T06:39:38.312Z,4.35
2022-12-18T06:42:10.020Z,4.30
2022-12-18T06:44:40.068Z,3.83
2022-12-18T06:47:06.900Z,3.88
2022-12-18T06:49:35.328Z,4.20
2022-12-18T06:52:02.041Z,4.03
2022-12-18T06:54:29.000Z,4.13
2022-12-18T06:57:02.637Z,4.43
2022-12-18T06:59:29.384Z,4.97
2022-12-18T07:01:57.661Z,4.43
2022-12-18T07:04:29.313Z,4.60
2022-12-18T07:06:56.022Z,4.30
2022-12-18T07:09:22.733Z,2.85
2022-12-18T07:11:49.420Z,4.78
2022-12-18T07:14:16.643Z,4.80
2022-12-18T07:16:43.415Z,5.03
2022-12-18T07:19:14.460Z,3.63
2022-12-18T07:21:41.252Z,5.07
2022-12-18T07:24:10.347Z,4.07
2022-12-18T07:26:37.030Z,3.78
2022-12-18T07:29:03.706Z,3.58
2022-12-18T07:31:33.024Z,3.72
2022-12-18T07:33:59.721Z,3.45
2022-12-18T07:36:28.067Z,4.03
2022-12-18T07:38:57.888Z,3.95
2022-12-18T07:41:26.350Z,3.92
2022-12-18T07:43:53.085Z,3.75
2022-12-18T07:46:22.430Z,4.57
2022-12-18T07:48:50.331Z,3.42
2022-12-18T07:51:20.355Z,3.53
2022-12-18T07:53:52.513Z,3.63
2022-12-18T07:56:29.201Z,3.80
2022-12-18T07:59:00.575Z,3.28
2022-12-18T08:01:29.277Z,3.30
2022-12-18T08:03:56.065Z,4.47
2022-12-18T08:06:26.797Z,4.10
2022-12-18T08:08:57.010Z,3.97
2022-12-18T08:11:25.725Z,4.00
2022-12-18T08:13:52.644Z,3.47
2022-12-18T08:16:20.215Z,4.05
2022-12-18T08:18:47.696Z,3.88
2022-12-18T08:21:16.413Z,4.00
2022-12-18T08:24:20.254Z,3.80
2022-12-18T08:27:06.693Z,3.35
2022-12-18T08:29:35.085Z,3.65
2022-12-18T08:32:01.848Z,4.00
2022-12-18T08:34:28.572Z,3.50
2022-12-18T08:36:55.687Z,3.95
2022-12-18T08:39:22.558Z,3.10
2022-12-18T08:42:10.434Z,4.10
2022-12-18T08:44:43.086Z,4.55
2022-12-18T08:49:38.048Z,3.45
2022-12-18T08:52:05.383Z,3.38
2022-12-18T08:54:32.299Z,3.63
2022-12-18T08:57:00.330Z,3.55
2022-12-18T08:59:30.102Z,3.22
2022-12-18T09:01:57.073Z,2.60
2022-12-18T09:04:23.931Z,3.45
2022-12-18T09:06:52.019Z,3.17
2022-12-18T09:09:18.766Z,3.03
2022-12-18T09:11:45.601Z,2.75
2022-12-18T09:14:16.989Z,3.13
2022-12-18T09:16:45.558Z,2.88
2022-12-18T09:19:15.206Z,2.80
2022-12-18T09:21:48.317Z,3.13
2022-12-18T09:24:16.116Z,3.53
2022-12-18T09:26:43.887Z,2.97
2022-12-18T09:29:16.930Z,3.47
2022-12-18T09:31:45.989Z,2.88
2022-12-18T09:34:12.675Z,3.35
2022-12-18T09:36:39.784Z,3.25
2022-12-18T09:39:08.801Z,2.63
2022-12-18T09:41:48.009Z,3.45
2022-12-18T09:44:22.546Z,4.00
2022-12-18T09:46:59.451Z,3.58
2022-12-18T09:49:30.743Z,3.35
2022-12-18T09:52:03.095Z,3.38
2022-12-18T09:54:34.727Z,3.78
2022-12-18T09:57:01.524Z,3.63
2022-12-18T09:59:35.625Z,3.60
2022-12-18T10:02:14.861Z,3.80
2022-12-18T10:04:41.671Z,2.60
2022-12-18T10:07:16.640Z,3.15
2022-12-18T10:09:54.235Z,3.55
2022-12-18T10:12:28.662Z,3.17
2022-12-18T10:15:05.958Z,3.35
2022-12-18T10:17:42.763Z,2.45
2022-12-18T10:20:20.958Z,3.22
2022-12-18T10:22:54.144Z,2.72
2022-12-18T10:25:24.945Z,2.63
2022-12-18T10:27:56.311Z,3.90
2022-12-18T10:30:26.516Z,2.58
2022-12-18T10:32:53.636Z,2.38
2022-12-18T10:35:23.131Z,3.55
2022-12-18T10:38:07.900Z,3.90
2022-12-18T10:40:52.765Z,2.80
2022-12-18T10:43:24.441Z,3.10
2022-12-18T10:46:03.009Z,4.63
2022-12-18T10:48:31.637Z,3.50
2022-12-18T10:51:14.114Z,4.18
2022-12-18T10:53:42.865Z,3.60
2022-12-18T10:56:10.368Z,5.22
2022-12-18T10:58:39.097Z,3.75
2022-12-18T11:01:11.769Z,3.70
2022-12-18T11:03:42.403Z,3.55
2022-12-18T11:06:13.093Z,2.80
2022-12-18T11:08:42.050Z,3.95
2022-12-18T11:11:20.019Z,4.50
2022-12-18T11:13:59.561Z,3.53
2022-12-18T11:17:24.991Z,3.25
2022-12-18T11:19:36.871Z,6.10
2022-12-18T11:22:21.146Z,4.03
2022-12-18T11:25:29.407Z,3.90
2022-12-18T11:27:41.673Z,2.97
2022-12-18T11:30:09.830Z,4.35
2022-12-18T11:32:39.524Z,4.15
2022-12-18T11:35:16.588Z,3.90
2022-12-18T11:37:49.639Z,3.58
2022-12-18T11:40:21.024Z,3.85
2022-12-18T11:42:53.412Z,3.95
2022-12-18T11:45:30.552Z,3.60
2022-12-18T11:48:08.157Z,4.20
2022-12-18T11:53:12.223Z,3.55
2022-12-18T11:55:45.026Z,4.00
2022-12-18T11:58:48.969Z,3.75
2022-12-18T12:01:44.445Z,4.00
2022-12-18T12:04:37.133Z,3.40
2022-12-18T12:07:20.439Z,3.30
2022-12-18T12:09:56.267Z,4.05
2022-12-18T12:12:48.632Z,4.13
2022-12-18T12:15:27.186Z,3.35
2022-12-18T12:17:59.170Z,3.47
2022-12-18T12:20:40.362Z,3.55
2022-12-18T12:23:17.940Z,3.50
2022-12-18T12:25:51.568Z,4.38
2022-12-18T12:28:35.859Z,3.50
2022-12-18T12:33:44.479Z,3.50
2022-12-18T12:36:21.618Z,3.75
2022-12-18T12:38:55.185Z,3.28
2022-12-18T12:41:51.071Z,3.92
2022-12-18T12:44:22.960Z,3.58
2022-12-18T12:46:51.494Z,3.50
2022-12-18T12:49:21.313Z,3.42
2022-12-18T12:52:00.161Z,3.85
2022-12-18T12:54:28.766Z,3.72
2022-12-18T12:57:04.267Z,3.28
2022-12-18T13:00:28.009Z,3.85
2022-12-18T13:03:02.694Z,3.42
2022-12-18T13:05:36.281Z,2.83
2022-12-18T13:08:07.690Z,3.45
2022-12-18T13:10:37.298Z,3.33
2022-12-18T13:13:07.235Z,4.10
2022-12-18T13:15:40.745Z,3.05
2022-12-18T13:18:19.761Z,3.30
2022-12-18T13:20:53.181Z,3.95
2022-12-18T13:23:37.609Z,4.57
2022-12-18T13:26:34.886Z,4.35
2022-12-18T13:29:05.138Z,3.50
2022-12-18T13:32:09.187Z,4.03
2022-12-18T13:34:36.555Z,3.88
2022-12-18T13:37:42.558Z,4.18
2022-12-18T13:40:53.985Z,3.55
2022-12-18T13:43:29.794Z,4.65
2022-12-18T13:46:21.538Z,4.43
2022-12-18T13:48:58.937Z,3.47
2022-12-18T13:51:27.082Z,4.25
2022-12-18T13:54:00.785Z,3.97
2022-12-18T13:56:31.655Z,3.58
2022-12-18T13:59:17.833Z,4.25
2022-12-18T14:01:48.294Z,4.43
2022-12-18T14:04:21.391Z,3.78
2022-12-18T14:06:57.850Z,3.13
2022-12-18T14:09:30.059Z,4.35
2022-12-18T14:12:18.590Z,3.78
2022-12-18T14:14:49.897Z,3.85
2022-12-18T14:17:20.311Z,3.65
2022-12-18T14:19:51.861Z,4.03
2022-12-18T14:22:22.492Z,3.90
2022-12-18T14:25:15.490Z,3.40
2022-12-18T14:27:44.985Z,3.47
2022-12-18T14:30:31.796Z,4.10
2022-12-18T14:33:06.257Z,4.35
2022-12-18T14:35:34.167Z,3.97
2022-12-18T14:38:24.235Z,3.92
2022-12-18T14:40:53.895Z,4.18
2022-12-18T14:43:21.033Z,4.38
2022-12-18T14:45:50.557Z,4.07
2022-12-18T14:48:23.354Z,4.10
2022-12-18T14:51:00.992Z,4.63
2022-12-18T14:53:35.957Z,4.35
2022-12-18T14:56:03.275Z,6.15
2022-12-18T14:58:30.425Z,5.15
2022-12-18T15:00:58.644Z,3.90
2022-12-18T15:03:26.211Z,5.25
2022-12-18T15:05:53.717Z,5.03
2022-12-18T15:08:35.305Z,4.68
2022-12-18T15:11:02.375Z,4.00
2022-12-18T15:13:30.111Z,4.75
2022-12-18T15:16:01.348Z,4.28
2022-12-18T15:18:33.157Z,4.13
2022-12-18T15:21:08.013Z,4.55
2022-12-18T15:23:37.645Z,4.05
2022-12-18T15:26:09.806Z,5.22
2022-12-18T15:28:39.163Z,4.45
2022-12-18T15:31:24.435Z,4.22
2022-12-18T15:34:18.671Z,4.55
2022-12-18T15:36:46.885Z,4.57
2022-12-18T15:39:16.871Z,3.67
2022-12-18T15:42:04.707Z,4.40
2022-12-18T15:44:31.903Z,4.55
2022-12-18T15:47:00.114Z,4.50
2022-12-18T15:49:28.046Z,4.90
2022-12-18T15:51:57.669Z,5.40
2022-12-18T15:54:43.316Z,4.68
2022-12-18T15:57:26.804Z,4.15
2022-12-18T15:59:56.685Z,4.50
2022-12-18T16:02:25.412Z,4.38
2022-12-18T16:04:55.094Z,4.75
2022-12-18T16:07:25.489Z,4.18
2022-12-18T16:09:53.401Z,4.95
2022-12-18T16:12:23.807Z,7.15
2022-12-18T16:14:50.847Z,5.00
2022-12-18T16:17:18.394Z,5.53
2022-12-18T16:19:46.719Z,5.22
2022-12-18T16:22:22.440Z,4.78
2022-12-18T16:24:50.569Z,5.55
2022-12-18T16:27:17.604Z,6.18
2022-12-18T16:29:44.467Z,5.75
2022-12-18T16:32:15.849Z,6.43
2022-12-18T16:34:43.414Z,6.18
2022-12-18T16:37:13.327Z,6.28
2022-12-18T16:39:41.621Z,5.43
2022-12-18T16:42:17.537Z,6.53
2022-12-18T16:44:45.124Z,6.13
2022-12-18T16:47:13.250Z,5.75
2022-12-18T16:49:46.732Z,5.45
2022-12-18T16:52:15.071Z,6.00
2022-12-18T16:54:42.896Z,5.70
2022-12-18T16:57:13.217Z,5.70
2022-12-18T16:59:39.998Z,6.43
2022-12-18T17:02:12.374Z,6.80
2022-12-18T17:07:06.149Z,6.38
2022-12-18T17:09:34.425Z,5.20
2022-12-18T17:12:04.431Z,5.72
2022-12-18T17:14:33.059Z,4.45
2022-12-18T17:19:49.698Z,5.93
2022-12-18T17:22:16.556Z,5.60
2022-12-18T17:24:44.969Z,5.72
2022-12-18T17:27:13.012Z,7.03
2022-12-18T17:29:45.312Z,5.53
2022-12-18T17:32:17.344Z,6.35
2022-12-18T17:34:44.195Z,7.90
2022-12-18T17:37:13.503Z,6.78
2022-12-18T17:40:17.801Z,6.50
2022-12-18T17:42:46.089Z,6.40
2022-12-18T17:45:12.837Z,5.38
2022-12-18T17:47:40.064Z,8.30
2022-12-18T17:50:08.537Z,7.07
2022-12-18T17:52:36.478Z,6.93
2022-12-18T17:55:03.521Z,5.40
2022-12-18T17:57:30.334Z,6.28
2022-12-18T17:59:59.043Z,5.95
2022-12-18T18:02:26.084Z,5.90
2022-12-18T18:04:53.471Z,6.38
2022-12-18T18:07:20.416Z,6.22
2022-12-18T18:09:47.357Z,7.18
2022-12-18T18:12:34.411Z,6.50
2022-12-18T18:15:03.275Z,6.05
2022-12-18T18:17:30.743Z,6.00
2022-12-18T18:19:57.494Z,6.18
2022-12-18T18:22:27.736Z,7.28
2022-12-18T18:24:55.214Z,6.13
2022-12-18T18:27:23.832Z,5.68
2022-12-18T18:29:50.726Z,6.57
2022-12-18T18:32:19.132Z,6.05
2022-12-18T18:34:48.584Z,6.15
2022-12-18T18:37:17.534Z,6.10
2022-12-18T18:39:44.667Z,6.63
2022-12-18T18:42:12.499Z,6.38
2022-12-18T18:44:42.242Z,5.60
2022-12-18T18:47:12.290Z,5.93
2022-12-18T18:49:42.279Z,6.00
2022-12-18T18:52:09.257Z,7.10
2022-12-18T18:54:36.395Z,6.68
2022-12-18T18:57:20.480Z,6.47
2022-12-18T18:59:49.252Z,5.88
2022-12-18T19:02:18.575Z,6.47
2022-12-18T19:04:47.420Z,6.22
2022-12-18T19:07:20.321Z,6.47
2022-12-18T19:09:57.455Z,6.35
2022-12-18T19:12:47.271Z,7.07
2022-12-18T19:15:14.045Z,5.70
2022-12-18T19:17:40.998Z,5.47
2022-12-18T19:20:13.336Z,6.90
2022-12-18T19:22:43.831Z,5.50
2022-12-18T19:25:29.748Z,6.18
2022-12-18T19:28:07.017Z,5.80
2022-12-18T19:30:39.211Z,6.47
2022-12-18T19:33:34.476Z,5.97
2022-12-18T19:35:57.440Z,7.13
2022-12-18T19:38:24.538Z,6.43
2022-12-18T19:40:51.876Z,6.57
2022-12-18T19:43:30.168Z,6.50
2022-12-18T19:45:56.970Z,6.68
2022-12-18T19:48:26.030Z,7.53
2022-12-18T19:50:54.299Z,8.07
2022-12-18T19:53:21.640Z,6.20
2022-12-18T19:55:49.268Z,7.32
2022-12-18T19:58:16.871Z,6.32
2022-12-18T20:00:43.754Z,7.32
2022-12-18T20:03:23.346Z,6.55
2022-12-18T20:05:52.216Z,6.63
2022-12-18T20:08:24.892Z,7.25
2022-12-18T20:10:53.885Z,6.63
2022-12-18T20:13:22.111Z,6.38
2022-12-18T20:15:57.257Z,7.45
2022-12-18T20:18:23.882Z,6.82
2022-12-18T20:20:50.682Z,6.78
2022-12-18T20:23:21.819Z,7.30
2022-12-18T20:25:52.056Z,7.50
2022-12-18T20:28:18.778Z,6.43
2022-12-18T20:30:45.474Z,6.78
2022-12-18T20:33:12.152Z,7.50
2022-12-18T20:35:39.006Z,6.90
2022-12-18T20:38:06.095Z,7.10
2022-12-18T20:40:33.895Z,7.43
2022-12-18T20:43:02.361Z,7.88
2022-12-18T20:45:29.961Z,8.00
2022-12-18T20:47:58.135Z,6.53
2022-12-18T20:50:24.853Z,6.90
2022-12-18T20:52:51.591Z,8.07
2022-12-18T20:55:18.361Z,7.93
2022-12-18T20:57:45.164Z,7.53
2022-12-18T21:00:15.604Z,8.30
2022-12-18T21:02:47.108Z,7.50
2022-12-18T21:05:14.027Z,7.97
2022-12-18T21:07:40.889Z,9.70
2022-12-18T21:10:08.324Z,8.18
2022-12-18T21:12:44.050Z,7.88
2022-12-18T21:19:05.531Z,8.23
2022-12-18T21:21:38.666Z,8.30
2022-12-18T21:24:07.034Z,8.95
2022-12-18T21:26:34.257Z,8.90
2022-12-18T21:29:06.017Z,8.15
2022-12-18T21:31:34.910Z,8.95
2022-12-18T21:34:02.735Z,8.27
2022-12-18T21:36:31.866Z,7.78
2022-12-18T21:39:00.100Z,8.27
2022-12-18T21:41:45.799Z,8.15
2022-12-18T21:44:15.116Z,8.68
2022-12-18T21:46:44.124Z,9.07
2022-12-18T21:49:14.506Z,8.85
2022-12-18T21:51:42.779Z,8.65
2022-12-18T21:54:09.533Z,8.95
2022-12-18T21:56:47.464Z,8.68
2022-12-18T21:59:16.416Z,10.00
2022-12-18T22:01:43.772Z,9.07
2022-12-18T22:04:11.496Z,7.97
2022-12-18T22:06:38.337Z,8.30
2022-12-18T22:09:10.205Z,8.50
2022-12-18T22:11:37.058Z,7.47
2022-12-18T22:14:03.980Z,8.52
2022-12-18T22:16:31.292Z,8.07
2022-12-18T22:18:58.195Z,9.55
2022-12-18T22:21:29.289Z,8.23
2022-12-18T22:23:58.025Z,9.45
2022-12-18T22:26:27.929Z,9.25
2022-12-18T22:29:13.888Z,9.30
2022-12-18T22:31:41.025Z,8.52
2022-12-18T22:34:08.041Z,7.15
2022-12-18T22:36:36.330Z,7.22
2022-12-18T22:39:04.136Z,7.20
2022-12-18T22:41:32.473Z,6.95
2022-12-18T22:44:07.680Z,9.32
2022-12-18T22:46:39.435Z,7.97
2022-12-18T22:49:06.802Z,8.13
2022-12-18T22:51:33.627Z,6.93
2022-12-18T22:54:00.969Z,7.03
2022-12-18T22:56:28.932Z,8.13
2022-12-18T22:58:57.208Z,9.90
2022-12-18T23:01:27.199Z,8.63
2022-12-18T23:03:55.060Z,7.57
2022-12-18T23:06:24.106Z,9.63
2022-12-18T23:08:55.970Z,9.52
2022-12-18T23:11:24.519Z,9.23
2022-12-18T23:13:51.998Z,10.77
2022-12-18T23:16:25.175Z,9.23
2022-12-18T23:18:53.352Z,11.45
2022-12-18T23:21:21.977Z,8.57
2022-12-18T23:23:50.265Z,9.98
2022-12-18T23:26:19.858Z,9.98
2022-12-18T23:28:47.227Z,9.35
2022-12-18T23:31:16.950Z,8.82
2022-12-18T23:33:46.792Z,9.80
2022-12-18T23:36:15.772Z,9.88
2022-12-18T23:38:47.946Z,10.13
2022-12-18T23:43:43.338Z,9.48
2022-12-18T23:46:12.678Z,10.07
2022-12-18T23:48:41.174Z,10.88
2022-12-18T23:51:11.247Z,9.18
2022-12-18T23:53:38.295Z,10.55
2022-12-18T23:56:05.900Z,8.50
2022-12-18T23:58:34.372Z,8.23
